Time;durP1;ratioP1;P1;durP2;ratioP2;P2;SDS_P1;SDS_P2;PMS_P1;PMS_P2;Temp;Humidity;BMP_temperature;BMP_pressure;BME280_temperature;BME280_humidity;BME280_pressure;Samples;Min_cycle;Max_cycle;Signal;HPM_P1;HPM_P2
2024/02/11 00:01:54;;;;;;;21.52;4.65;;;8.40;99.90;;;;;;6289664;28;20064;-85
2024/02/11 00:04:56;;;;;;;18.65;4.43;;;8.40;99.90;;;;;;6273551;28;20053;-85
2024/02/11 00:07:58;;;;;;;19.85;4.35;;;8.50;99.90;;;;;;6296549;28;20415;-85
2024/02/11 00:10:59;;;;;;;21.10;4.70;;;8.40;99.90;;;;;;6272329;28;20059;-84
2024/02/11 00:14:01;;;;;;;17.38;4.72;;;8.40;99.90;;;;;;6273625;28;20057;-86
2024/02/11 00:17:03;;;;;;;15.40;4.10;;;8.40;99.90;;;;;;6274133;28;20053;-84
2024/02/11 00:20:09;;;;;;;18.05;4.43;;;8.40;99.90;;;;;;6295935;28;20056;-86
2024/02/11 00:23:12;;;;;;;17.05;4.05;;;8.40;99.90;;;;;;6263565;28;20045;-85
2024/02/11 00:26:14;;;;;;;20.08;4.65;;;8.40;99.90;;;;;;6277501;28;20056;-85
2024/02/11 00:29:17;;;;;;;13.45;4.30;;;8.40;99.90;;;;;;6286403;28;20423;-85
2024/02/11 00:32:19;;;;;;;19.50;4.30;;;8.40;99.90;;;;;;6295729;28;20060;-84
2024/02/11 00:35:21;;;;;;;18.60;3.90;;;8.40;99.90;;;;;;6291624;28;20079;-85
2024/02/11 00:38:23;;;;;;;18.85;4.10;;;;;;;;;;6267126;28;20418;-84
2024/02/11 00:41:26;;;;;;;14.32;4.20;;;;;;;;;;6272960;28;20052;-85
2024/02/11 00:44:30;;;;;;;18.40;3.90;;;8.30;99.90;;;;;;6288628;28;20413;-84
2024/02/11 00:47:32;;;;;;;17.00;4.13;;;;;;;;;;6295447;28;20060;-84
2024/02/11 00:50:34;;;;;;;16.50;3.60;;;8.20;99.90;;;;;;6295690;28;20133;-85
2024/02/11 00:53:36;;;;;;;18.10;4.47;;;;;;;;;;6271493;28;20088;-85
2024/02/11 00:56:38;;;;;;;15.55;3.85;;;8.20;99.90;;;;;;6275959;28;20514;-84
2024/02/11 00:59:40;;;;;;;14.38;4.20;;;;;;;;;;6281233;28;20059;-85
2024/02/11 01:02:43;;;;;;;17.48;4.22;;;8.10;99.90;;;;;;6284381;28;20126;-84
2024/02/11 01:05:45;;;;;;;16.40;4.10;;;8.20;99.90;;;;;;6270958;28;20060;-84
2024/02/11 01:08:49;;;;;;;17.17;4.03;;;;;;;;;;6294914;28;20053;-84
2024/02/11 01:11:51;;;;;;;14.15;3.53;;;;;;;;;;6270440;28;20051;-84
2024/02/11 01:14:55;;;;;;;10.93;3.38;;;;;;;;;;6274102;28;20044;-84
2024/02/11 01:17:57;;;;;;;13.50;4.13;;;8.00;99.90;;;;;;6294918;28;20048;-82
2024/02/11 01:20:59;;;;;;;14.35;3.50;;;;;;;;;;6270675;28;20064;-83
2024/02/11 01:24:01;;;;;;;11.52;3.58;;;;;;;;;;6294499;28;20056;-84
2024/02/11 01:27:03;;;;;;;16.25;4.60;;;;;;;;;;6270423;28;20075;-84
2024/02/11 01:30:06;;;;;;;14.25;4.57;;;;;;;;;;6271682;28;20052;-83
2024/02/11 01:33:09;;;;;;;12.57;4.30;;;;;;;;;;6293990;28;20412;-84
2024/02/11 01:36:12;;;;;;;15.88;4.28;;;;;;;;;;6284008;28;20473;-83
2024/02/11 01:39:15;;;;;;;13.85;4.25;;;;;;;;;;6294327;28;20137;-83
2024/02/11 01:42:17;;;;;;;18.17;4.72;;;;;;;;;;6270064;28;20049;-83
2024/02/11 01:45:19;;;;;;;13.65;4.18;;;;;;;;;;6273291;28;20053;-84
2024/02/11 01:48:21;;;;;;;12.20;4.68;;;7.90;99.90;;;;;;6293058;28;20059;-83
2024/02/11 01:51:23;;;;;;;18.58;5.00;;;7.70;99.90;;;;;;6270073;28;20059;-84
2024/02/11 01:54:25;;;;;;;16.33;4.78;;;7.80;99.90;;;;;;6293179;28;20045;-84
2024/02/11 01:57:27;;;;;;;13.27;4.10;;;;;;;;;;6294044;28;20075;-84
2024/02/11 02:00:29;;;;;;;15.82;4.45;;;;;;;;;;6263766;28;20049;-84
2024/02/11 02:03:30;;;;;;;15.32;4.40;;;8.00;99.90;;;;;;6244313;28;20057;-84
2024/02/11 02:06:32;;;;;;;17.98;4.82;;;8.00;99.90;;;;;;6272468;28;20060;-83
2024/02/11 02:09:34;;;;;;;16.60;4.70;;;7.90;99.90;;;;;;6288761;28;20044;-85
2024/02/11 02:12:35;;;;;;;15.07;5.22;;;7.90;99.90;;;;;;6286026;28;20496;-84
2024/02/11 02:15:37;;;;;;;17.05;4.60;;;7.80;99.90;;;;;;6267917;28;20044;-84
2024/02/11 02:18:39;;;;;;;14.75;4.78;;;7.80;99.90;;;;;;6277937;28;20055;-85
2024/02/11 02:21:40;;;;;;;16.73;4.72;;;7.90;99.90;;;;;;6280479;28;20182;-84
2024/02/11 02:24:42;;;;;;;16.73;4.90;;;7.80;99.90;;;;;;6283710;28;20501;-84
2024/02/11 02:27:44;;;;;;;15.73;5.63;;;7.90;99.90;;;;;;6291376;28;20059;-85
2024/02/11 02:30:46;;;;;;;20.42;6.00;;;7.80;99.90;;;;;;6236688;28;20416;-84
2024/02/11 02:33:48;;;;;;;16.58;5.78;;;7.90;99.90;;;;;;6274821;28;20052;-83
2024/02/11 02:36:50;;;;;;;19.65;6.95;;;7.90;99.90;;;;;;6275761;28;20064;-84
2024/02/11 02:39:52;;;;;;;17.15;6.20;;;7.90;99.90;;;;;;6278916;28;20041;-84
2024/02/11 02:42:56;;;;;;;18.08;6.38;;;7.90;99.90;;;;;;6282862;28;20052;-83
2024/02/11 02:45:58;;;;;;;22.17;6.82;;;7.90;99.90;;;;;;6266229;28;20060;-84
2024/02/11 02:49:00;;;;;;;15.70;6.93;;;7.90;99.90;;;;;;6293305;28;20178;-83
2024/02/11 02:52:02;;;;;;;20.10;6.75;;;7.90;99.90;;;;;;6267700;28;20428;-84
2024/02/11 02:55:07;;;;;;;23.90;7.65;;;7.90;99.90;;;;;;6274000;28;20052;-84
2024/02/11 02:58:11;;;;;;;20.25;8.00;;;7.90;99.90;;;;;;6286775;28;20053;-84
2024/02/11 03:01:13;;;;;;;18.17;7.72;;;7.80;99.90;;;;;;6257517;28;20056;-83
2024/02/11 03:04:16;;;;;;;18.02;7.95;;;7.90;99.90;;;;;;6291383;28;20071;-83
2024/02/11 03:07:18;;;;;;;24.17;7.78;;;7.90;99.90;;;;;;6274626;28;20059;-83
2024/02/11 03:10:20;;;;;;;18.30;7.30;;;7.90;99.90;;;;;;6268329;28;20095;-83
2024/02/11 03:13:23;;;;;;;21.17;7.80;;;8.00;99.90;;;;;;6275110;28;20063;-83
2024/02/11 03:16:24;;;;;;;18.77;7.28;;;7.90;99.90;;;;;;6283495;28;20048;-83
2024/02/11 03:19:26;;;;;;;17.88;7.85;;;7.90;99.90;;;;;;6280519;28;20064;-83
2024/02/11 03:22:28;;;;;;;18.75;8.15;;;7.90;99.90;;;;;;6274227;28;20419;-84
2024/02/11 03:25:29;;;;;;;18.23;7.95;;;7.90;99.90;;;;;;6292000;28;20056;-83
2024/02/11 03:28:31;;;;;;;20.42;7.57;;;7.90;99.90;;;;;;6271670;28;20049;-83
2024/02/11 03:31:34;;;;;;;23.70;8.18;;;7.90;99.90;;;;;;6292086;28;20522;-83
2024/02/11 03:34:36;;;;;;;15.23;6.70;;;8.00;99.90;;;;;;6267953;28;20053;-84
2024/02/11 03:37:38;;;;;;;17.40;7.35;;;7.90;99.90;;;;;;6285867;28;20493;-83
2024/02/11 03:40:39;;;;;;;18.13;7.43;;;8.00;99.90;;;;;;6280293;28;20059;-83
2024/02/11 03:43:41;;;;;;;17.50;7.60;;;8.00;99.90;;;;;;6276686;28;20578;-84
2024/02/11 03:46:43;;;;;;;21.67;8.38;;;8.00;99.90;;;;;;6290927;28;20418;-84
2024/02/11 03:49:45;;;;;;;16.60;7.30;;;8.00;99.90;;;;;;6272179;28;20045;-83
2024/02/11 03:52:46;;;;;;;22.45;7.70;;;8.00;99.90;;;;;;6278664;28;20098;-84
2024/02/11 03:55:48;;;;;;;19.20;7.80;;;8.10;99.90;;;;;;6287460;28;20059;-84
2024/02/11 03:58:50;;;;;;;17.92;7.47;;;7.90;99.90;;;;;;6271134;28;20393;-83
2024/02/11 04:01:51;;;;;;;17.55;6.82;;;7.90;99.90;;;;;;6271942;28;20158;-84
2024/02/11 04:04:54;;;;;;;18.58;7.57;;;7.90;99.90;;;;;;6282236;28;20060;-83
2024/02/11 04:07:56;;;;;;;15.40;7.20;;;7.80;99.90;;;;;;6292012;28;20052;-84
2024/02/11 04:10:59;;;;;;;20.45;7.03;;;7.90;99.90;;;;;;6271001;28;20049;-84
2024/02/11 04:14:01;;;;;;;18.92;7.57;;;7.80;99.90;;;;;;6278032;28;20052;-83
2024/02/11 04:17:03;;;;;;;22.52;7.22;;;7.80;99.90;;;;;;6296377;28;20617;-84
2024/02/11 04:20:09;;;;;;;18.70;7.45;;;7.80;99.90;;;;;;6272173;28;20048;-84
2024/02/11 04:23:11;;;;;;;22.38;7.72;;;7.90;99.90;;;;;;6245945;28;20061;-85
2024/02/11 04:26:13;;;;;;;16.30;7.05;;;7.80;99.90;;;;;;6293269;28;20056;-83
2024/02/11 04:29:15;;;;;;;21.35;7.90;;;7.80;99.90;;;;;;6271471;28;20544;-83
2024/02/11 04:32:17;;;;;;;21.02;8.20;;;7.80;99.90;;;;;;6295425;28;20428;-83
2024/02/11 04:35:19;;;;;;;16.95;7.47;;;7.80;99.90;;;;;;6286335;28;20079;-83
2024/02/11 04:38:23;;;;;;;16.80;7.25;;;;;;;;;;6295832;28;20095;-83
2024/02/11 04:41:24;;;;;;;17.83;7.60;;;7.80;99.90;;;;;;6289631;28;20052;-83
2024/02/11 04:44:31;;;;;;;21.38;7.47;;;7.80;99.90;;;;;;6281506;28;20059;-83
2024/02/11 04:47:35;;;;;;;19.00;7.15;;;7.80;99.90;;;;;;6281068;28;20040;-83
2024/02/11 04:50:37;;;;;;;18.20;7.03;;;7.80;99.90;;;;;;6274095;28;20048;-83
2024/02/11 04:53:40;;;;;;;13.80;6.00;;;;;;;;;;6266431;28;20113;-84
2024/02/11 04:56:46;;;;;;;19.00;7.05;;;8.00;99.90;;;;;;6274740;28;20063;-83
2024/02/11 04:59:48;;;;;;;18.45;6.43;;;;;;;;;;6266709;28;20037;-84
2024/02/11 05:02:50;;;;;;;19.83;7.50;;;8.10;99.90;;;;;;6284236;28;20052;-83
2024/02/11 05:05:52;;;;;;;21.30;7.60;;;;;;;;;;6290634;28;20044;-83
2024/02/11 05:08:56;;;;;;;18.20;6.95;;;;;;;;;;6292264;28;20500;-85
2024/02/11 05:11:59;;;;;;;19.40;6.95;;;;;;;;;;6275627;28;20389;-85
2024/02/11 05:15:02;;;;;;;17.20;6.65;;;;;;;;;;6281204;28;20048;-85
2024/02/11 05:18:04;;;;;;;18.08;6.78;;;;;;;;;;6266640;28;20099;-85
2024/02/11 05:21:07;;;;;;;20.20;7.13;;;;;;;;;;6272869;28;20055;-85
2024/02/11 05:24:11;;;;;;;19.73;7.32;;;;;;;;;;6281968;28;20052;-86
2024/02/11 05:27:13;;;;;;;20.42;7.13;;;;;;;;;;6294767;28;20084;-85
2024/02/11 05:30:15;;;;;;;23.30;7.25;;;;;;;;;;6263483;28;20057;-85
2024/02/11 05:33:17;;;;;;;18.23;6.63;;;;;;;;;;6293959;28;20055;-85
2024/02/11 05:36:21;;;;;;;19.33;7.30;;;;;;;;;;6294574;28;20143;-86
2024/02/11 05:39:23;;;;;;;17.67;6.93;;;;;;;;;;6288337;28;20067;-85
2024/02/11 05:42:26;;;;;;;19.90;7.03;;;;;;;;;;6289171;28;20055;-85
2024/02/11 05:45:31;;;;;;;16.13;6.75;;;;;;;;;;6268716;28;20048;-86
2024/02/11 05:48:33;;;;;;;20.60;7.40;;;;;;;;;;6294505;28;20056;-85
2024/02/11 05:51:35;;;;;;;18.30;7.13;;;;;;;;;;6268904;28;20637;-86
2024/02/11 05:54:38;;;;;;;20.52;6.50;;;7.90;99.90;;;;;;6285485;28;20055;-85
2024/02/11 05:57:40;;;;;;;19.92;7.10;;;7.70;99.90;;;;;;6272971;28;20044;-86
2024/02/11 06:00:43;;;;;;;21.98;7.03;;;7.70;99.90;;;;;;6289750;28;20495;-86
2024/02/11 06:03:45;;;;;;;16.10;6.85;;;7.70;99.90;;;;;;6278932;28;20060;-86
2024/02/11 06:06:48;;;;;;;17.67;6.28;;;;;;;;;;6276061;28;20052;-86
2024/02/11 06:09:50;;;;;;;17.00;6.57;;;7.60;99.90;;;;;;6294027;28;20078;-86
2024/02/11 06:12:52;;;;;;;20.02;6.72;;;7.70;99.90;;;;;;6273694;28;20055;-87
2024/02/11 06:15:53;;;;;;;13.90;6.72;;;7.70;99.90;;;;;;6288780;28;20053;-86
2024/02/11 06:18:56;;;;;;;19.15;6.80;;;7.70;99.90;;;;;;6293443;28;20061;-86
2024/02/11 06:21:59;;;;;;;18.05;6.78;;;7.70;99.90;;;;;;6267939;28;20064;-86
2024/02/11 06:25:01;;;;;;;17.63;6.88;;;;;;;;;;6293086;28;20049;-85
2024/02/11 06:28:03;;;;;;;20.38;6.43;;;;;;;;;;6281295;28;20056;-86
2024/02/11 06:31:05;;;;;;;15.35;6.50;;;7.80;99.90;;;;;;6292256;28;20048;-86
2024/02/11 06:34:07;;;;;;;16.05;6.45;;;7.90;99.90;;;;;;6270081;28;20076;-85
2024/02/11 06:37:09;;;;;;;17.05;6.60;;;7.80;99.90;;;;;;6274643;28;20055;-87
2024/02/11 06:40:12;;;;;;;17.60;6.78;;;;;;;;;;6276207;28;20052;-85
2024/02/11 06:43:15;;;;;;;18.60;6.53;;;7.80;99.90;;;;;;6262172;28;20510;-85
2024/02/11 06:46:18;;;;;;;16.25;5.70;;;;;;;;;;6293011;28;20056;-85
2024/02/11 06:49:20;;;;;;;20.63;6.40;;;7.80;99.90;;;;;;6293176;28;20400;-85
2024/02/11 06:52:24;;;;;;;16.05;6.18;;;;;;;;;;6268940;28;20057;-86
2024/02/11 06:55:26;;;;;;;19.15;6.43;;;7.90;99.90;;;;;;6292367;28;20359;-85
2024/02/11 06:58:29;;;;;;;17.65;6.25;;;;;;;;;;6265715;28;20864;-86
2024/02/11 07:01:31;;;;;;;18.30;6.93;;;8.10;99.90;;;;;;6289935;28;20060;-85
2024/02/11 07:04:33;;;;;;;17.52;7.07;;;8.00;99.90;;;;;;6280714;28;20060;-86
2024/02/11 07:07:35;;;;;;;22.92;7.50;;;8.00;99.90;;;;;;6275779;28;20194;-86
2024/02/11 07:10:36;;;;;;;20.98;7.57;;;7.90;99.90;;;;;;6253415;28;20052;-86
2024/02/11 07:13:39;;;;;;;19.92;7.50;;;8.70;99.90;;;;;;6264998;28;20055;-85
2024/02/11 07:16:43;;;;;;;18.70;7.85;;;8.00;99.90;;;;;;6268226;28;20139;-85
2024/02/11 07:19:45;;;;;;;20.35;8.23;;;8.00;99.90;;;;;;6268688;28;20045;-84
2024/02/11 07:22:46;;;;;;;23.20;8.23;;;8.00;99.90;;;;;;6269842;28;20088;-85
2024/02/11 07:25:48;;;;;;;18.95;7.70;;;8.00;99.90;;;;;;6286303;28;20097;-86
2024/02/11 07:28:50;;;;;;;20.23;8.10;;;;;;;;;;6261614;28;20102;-86
2024/02/11 07:31:52;;;;;;;24.48;8.15;;;8.20;99.90;;;;;;6273493;28;20048;-86
2024/02/11 07:34:56;;;;;;;21.77;8.52;;;8.10;99.90;;;;;;6260902;28;20432;-86
2024/02/11 07:37:58;;;;;;;23.08;7.60;;;8.20;99.90;;;;;;6292945;28;20060;-84
2024/02/11 07:41:00;;;;;;;21.77;7.55;;;8.10;99.90;;;;;;6269062;28;20049;-85
2024/02/11 07:44:04;;;;;;;23.08;8.10;;;8.10;99.90;;;;;;6273845;28;20468;-86
2024/02/11 07:47:06;;;;;;;17.48;7.25;;;8.10;99.90;;;;;;6272596;28;20064;-86
2024/02/11 07:50:14;;;;;;;19.30;7.47;;;8.10;99.90;;;;;;6297773;28;20052;-86
2024/02/11 07:53:17;;;;;;;21.17;7.75;;;8.10;99.90;;;;;;6260119;28;20057;-86
2024/02/11 07:56:19;;;;;;;20.60;7.78;;;8.10;99.90;;;;;;6275467;28;20090;-86
2024/02/11 07:59:21;;;;;;;20.23;7.40;;;8.10;99.90;;;;;;6262683;28;20140;-86
2024/02/11 08:02:23;;;;;;;20.13;7.80;;;8.20;99.90;;;;;;6277283;28;20558;-86
2024/02/11 08:05:25;;;;;;;19.65;7.57;;;8.10;99.90;;;;;;6290520;28;20049;-85
2024/02/11 08:08:26;;;;;;;21.70;8.43;;;8.10;99.90;;;;;;6283948;28;20051;-85
2024/02/11 08:11:33;;;;;;;21.05;7.88;;;8.20;99.90;;;;;;6279433;28;20122;-86
2024/02/11 08:14:37;;;;;;;18.73;8.82;;;8.20;99.90;;;;;;6239144;28;20119;-86
2024/02/11 08:17:41;;;;;;;24.20;9.02;;;8.20;99.90;;;;;;6259943;28;20524;-83
2024/02/11 08:20:44;;;;;;;20.05;8.48;;;8.30;99.90;;;;;;6293662;28;20040;-88
2024/02/11 08:23:45;;;;;;;22.27;8.95;;;8.30;99.90;;;;;;6282988;28;20474;-88
2024/02/11 08:26:47;;;;;;;24.30;9.27;;;8.30;99.90;;;;;;6275396;28;20053;-87
2024/02/11 08:29:51;;;;;;;24.42;9.57;;;8.30;99.90;;;;;;6258553;28;20053;-90
2024/02/11 08:32:53;;;;;;;16.27;8.60;;;9.00;99.90;;;;;;6281553;28;20519;-86
2024/02/11 08:35:54;;;;;;;17.73;9.07;;;8.30;99.90;;;;;;6277026;28;20057;-91
2024/02/11 08:38:59;;;;;;;21.10;8.52;;;8.30;99.90;;;;;;6300816;28;20503;-89
2024/02/11 08:42:05;;;;;;;20.05;9.25;;;8.40;99.90;;;;;;6283622;28;20052;-88
2024/02/11 08:45:07;;;;;;;18.30;8.30;;;8.40;99.90;;;;;;6233162;28;20581;-88
2024/02/11 08:48:09;;;;;;;23.33;9.35;;;8.40;99.90;;;;;;6300201;28;20503;-89
2024/02/11 08:51:15;;;;;;;21.38;9.48;;;8.40;99.90;;;;;;6275883;28;20076;-89
2024/02/11 08:54:18;;;;;;;23.27;9.80;;;8.50;99.90;;;;;;6281245;28;20556;-87
2024/02/11 08:57:26;;;;;;;21.27;9.18;;;8.50;99.90;;;;;;6299513;28;20055;-87
2024/02/11 09:00:29;;;;;;;22.85;10.60;;;8.60;99.90;;;;;;6249197;28;20049;-88
2024/02/11 09:03:32;;;;;;;20.95;10.02;;;9.40;99.90;;;;;;6279928;28;20064;-89
2024/02/11 09:06:34;;;;;;;22.65;10.75;;;8.50;99.90;;;;;;6281665;28;20435;-90
2024/02/11 09:09:36;;;;;;;20.30;10.00;;;8.50;99.90;;;;;;6285272;28;20052;-87
2024/02/11 09:12:37;;;;;;;22.13;10.95;;;8.60;99.90;;;;;;6280776;28;20056;-88
2024/02/11 09:15:40;;;;;;;27.35;11.25;;;10.20;99.90;;;;;;6264103;28;20800;-88
2024/02/11 09:18:41;;;;;;;22.80;10.95;;;8.70;99.90;;;;;;6260264;28;20045;-89
2024/02/11 09:21:43;;;;;;;23.60;10.50;;;9.80;99.90;;;;;;6296606;28;20080;-86
2024/02/11 09:24:46;;;;;;;24.10;10.63;;;;;;;;;;6254668;28;20045;-87
2024/02/11 09:27:48;;;;;;;24.90;9.70;;;;;;;;;;6294099;28;20049;-90
2024/02/11 09:31:35;;;;;;;18.80;9.40;;;8.80;99.90;;;;;;6345933;27;20388;-88
2024/02/11 09:34:40;;;;;;;20.45;10.15;;;8.80;99.90;;;;;;6344269;28;20051;-89
2024/02/11 09:37:44;;;;;;;24.05;10.40;;;8.80;99.90;;;;;;6344866;28;20047;-90
2024/02/11 09:40:46;;;;;;;20.83;11.18;;;8.80;99.90;;;;;;6319377;28;20053;-91
2024/02/11 09:43:48;;;;;;;24.70;10.57;;;9.00;99.90;;;;;;6330479;28;20062;-91
2024/02/11 09:46:51;;;;;;;23.35;11.00;;;8.90;99.90;;;;;;6343435;28;20055;-94
2024/02/11 09:49:53;;;;;;;21.38;9.55;;;10.20;99.90;;;;;;6320252;28;20051;-90
2024/02/11 09:52:55;;;;;;;20.42;9.07;;;9.00;99.90;;;;;;6329959;28;20079;-90
2024/02/11 09:55:57;;;;;;;21.88;9.18;;;10.10;99.90;;;;;;6335278;28;20058;-89
2024/02/11 09:58:58;;;;;;;19.23;8.60;;;9.30;99.90;;;;;;6320370;28;20082;-91
2024/02/11 10:02:06;;;;;;;17.08;8.48;;;9.40;99.90;;;;;;6329779;28;20829;-90
2024/02/11 10:05:11;;;;;;;19.33;8.80;;;9.70;99.90;;;;;;6321441;28;20048;-89
2024/02/11 10:08:14;;;;;;;20.20;9.57;;;11.10;99.90;;;;;;6332568;28;20101;-90
2024/02/11 10:11:18;;;;;;;22.83;8.98;;;9.80;99.90;;;;;;6325627;28;20048;-90
2024/02/11 10:14:25;;;;;;;21.17;9.15;;;9.90;99.90;;;;;;6335535;28;20055;-88
2024/02/11 10:17:31;;;;;;;16.98;8.57;;;10.20;99.90;;;;;;6317003;28;20055;-90
